createdAt,value
2022-11-01T00:02:16.702Z,10.40
2022-11-01T00:04:46.671Z,10.30
2022-11-01T00:07:15.283Z,10.40
2022-11-01T00:09:44.045Z,10.30
2022-11-01T00:12:12.658Z,10.30
2022-11-01T00:14:41.339Z,10.10
2022-11-01T00:17:09.994Z,10.10
2022-11-01T00:19:38.583Z,10.10
2022-11-01T00:22:08.608Z,10.00
2022-11-01T00:24:37.246Z,10.00
2022-11-01T00:27:05.908Z,9.90
2022-11-01T00:29:34.521Z,9.90
2022-11-01T00:32:03.060Z,10.00
2022-11-01T00:34:31.750Z,10.00
2022-11-01T00:37:00.346Z,10.10
2022-11-01T00:39:31.420Z,10.10
2022-11-01T00:42:00.140Z,9.90
2022-11-01T00:44:28.774Z,10.00
2022-11-01T00:46:57.506Z,10.00
2022-11-01T00:49:26.167Z,10.00
2022-11-01T00:51:54.892Z,10.00
2022-11-01T00:54:23.714Z,10.00
2022-11-01T00:56:53.737Z,9.90
2022-11-01T00:59:22.353Z,9.90
2022-11-01T01:01:51.064Z,9.90
2022-11-01T01:04:19.859Z,9.80
2022-11-01T01:06:48.463Z,9.80
2022-11-01T01:09:17.082Z,9.90
2022-11-01T01:11:45.657Z,9.90
2022-11-01T01:14:15.696Z,9.90
2022-11-01T01:16:44.288Z,9.80
2022-11-01T01:19:12.887Z,9.70
2022-11-01T01:21:41.529Z,9.80
2022-11-01T01:24:10.384Z,9.70
2022-11-01T01:26:39.460Z,9.70
2022-11-01T01:29:08.035Z,9.70
2022-11-01T01:31:38.102Z,9.80
2022-11-01T01:34:07.162Z,9.80
2022-11-01T01:36:35.950Z,9.80
2022-11-01T01:39:04.597Z,9.90
2022-11-01T01:41:50.337Z,9.80
2022-11-01T01:45:16.559Z,9.60
2022-11-01T01:47:50.862Z,9.50
2022-11-01T01:50:29.719Z,9.50
2022-11-01T01:53:06.510Z,9.40
2022-11-01T01:55:43.002Z,9.40
2022-11-01T01:58:15.932Z,9.60
2022-11-01T02:00:46.069Z,9.50
2022-11-01T02:03:16.930Z,9.60
2022-11-01T02:05:53.272Z,9.50
2022-11-01T02:08:28.343Z,9.50
2022-11-01T02:11:01.786Z,9.50
2022-11-01T02:13:31.493Z,9.50
2022-11-01T02:16:40.117Z,9.40
2022-11-01T02:19:58.985Z,9.30
2022-11-01T02:22:47.316Z,9.30
2022-11-01T02:25:43.743Z,9.30
2022-11-01T02:28:38.337Z,9.30
2022-11-01T02:31:40.469Z,9.30
2022-11-01T02:34:20.152Z,9.40
2022-11-01T02:36:59.194Z,9.40
2022-11-01T02:39:33.801Z,9.50
2022-11-01T02:42:11.331Z,9.40
2022-11-01T02:44:47.733Z,9.30
2022-11-01T02:47:17.575Z,9.40
2022-11-01T02:49:52.248Z,9.40
2022-11-01T02:52:26.183Z,9.40
2022-11-01T02:54:59.255Z,9.40
2022-11-01T02:57:36.015Z,9.40
2022-11-01T03:00:23.465Z,9.40
2022-11-01T03:03:00.888Z,9.40
2022-11-01T03:05:54.311Z,9.40
2022-11-01T03:08:28.716Z,9.40
2022-11-01T03:11:08.427Z,9.40
2022-11-01T03:13:57.650Z,9.40
2022-11-01T03:16:34.821Z,9.40
2022-11-01T03:19:25.970Z,9.40
2022-11-01T03:22:06.751Z,9.40
2022-11-01T03:24:46.571Z,9.30
2022-11-01T03:27:25.479Z,9.30
2022-11-01T03:30:04.024Z,9.40
2022-11-01T03:32:42.234Z,9.40
2022-11-01T03:35:18.144Z,9.40
2022-11-01T03:37:54.391Z,9.30
2022-11-01T03:40:27.189Z,9.30
2022-11-01T03:43:02.502Z,9.40
2022-11-01T03:45:36.494Z,9.40
2022-11-01T03:48:05.925Z,9.50
2022-11-01T03:50:35.612Z,9.40
2022-11-01T03:53:05.844Z,9.40
2022-11-01T03:55:34.426Z,9.30
2022-11-01T03:58:03.450Z,9.30
2022-11-01T04:00:36.431Z,9.30
2022-11-01T04:03:05.784Z,9.30
2022-11-01T04:05:37.049Z,9.20
2022-11-01T04:08:09.092Z,9.30
2022-11-01T04:10:37.857Z,9.30
2022-11-01T04:13:06.790Z,9.30
2022-11-01T04:15:53.166Z,9.30
2022-11-01T04:18:42.121Z,9.30
2022-11-01T04:21:13.667Z,9.30
2022-11-01T04:23:44.211Z,9.20
2022-11-01T04:26:15.576Z,9.30
2022-11-01T04:28:45.026Z,9.30
2022-11-01T04:31:14.012Z,9.20
2022-11-01T04:33:42.573Z,9.10
2022-11-01T04:36:11.678Z,9.00
2022-11-01T04:38:40.352Z,9.10
2022-11-01T04:41:10.398Z,9.10
2022-11-01T04:43:39.027Z,9.10
2022-11-01T04:46:07.913Z,9.10
2022-11-01T04:48:36.555Z,9.10
2022-11-01T04:51:05.539Z,9.10
2022-11-01T04:53:34.118Z,9.10
2022-11-01T04:56:04.269Z,9.00
2022-11-01T04:58:39.980Z,9.00
2022-11-01T05:01:12.382Z,9.10
2022-11-01T05:03:41.096Z,9.10
2022-11-01T05:06:10.297Z,9.10
2022-11-01T05:08:39.438Z,9.10
2022-11-01T05:11:08.376Z,9.00
2022-11-01T05:13:38.562Z,9.00
2022-11-01T05:16:23.703Z,9.00
2022-11-01T05:18:52.940Z,8.90
2022-11-01T05:21:22.859Z,8.90
2022-11-01T05:23:52.390Z,8.90
2022-11-01T05:26:22.115Z,9.00
2022-11-01T05:28:57.345Z,9.00
2022-11-01T05:31:26.952Z,8.90
2022-11-01T05:33:55.705Z,9.00
2022-11-01T05:36:24.474Z,8.90
2022-11-01T05:38:56.770Z,8.90
2022-11-01T05:41:25.874Z,9.00
2022-11-01T05:44:00.614Z,8.90
2022-11-01T05:46:29.830Z,8.90
2022-11-01T05:48:58.979Z,8.90
2022-11-01T05:51:27.752Z,8.90
2022-11-01T05:53:56.391Z,8.90
2022-11-01T05:56:25.010Z,8.90
2022-11-01T05:58:55.141Z,8.90
2022-11-01T06:01:23.863Z,8.80
2022-11-01T06:03:52.553Z,8.80
2022-11-01T06:06:21.308Z,8.90
2022-11-01T06:08:49.846Z,8.90
2022-11-01T06:11:18.453Z,8.90
2022-11-01T06:13:47.042Z,8.90
2022-11-01T06:19:12.874Z,8.90
2022-11-01T06:21:41.474Z,8.90
2022-11-01T06:24:11.735Z,8.80
2022-11-01T06:26:40.595Z,8.90
2022-11-01T06:29:12.980Z,8.90
2022-11-01T06:31:41.980Z,8.80
2022-11-01T06:34:12.019Z,8.80
2022-11-01T06:36:40.698Z,8.80
2022-11-01T06:39:11.035Z,8.90
2022-11-01T06:41:39.644Z,8.80
2022-11-01T06:44:08.341Z,8.80
2022-11-01T06:46:36.991Z,8.80
2022-11-01T06:49:05.558Z,8.70
2022-11-01T06:51:35.811Z,8.80
2022-11-01T06:54:04.487Z,8.80
2022-11-01T06:56:33.134Z,8.90
2022-11-01T06:59:01.775Z,8.90
2022-11-01T07:01:30.872Z,8.90
2022-11-01T07:03:59.808Z,8.90
2022-11-01T07:06:31.066Z,8.90
2022-11-01T07:09:02.112Z,9.00
2022-11-01T07:11:31.836Z,9.00
2022-11-01T07:14:00.847Z,9.00
2022-11-01T07:16:29.935Z,8.90
2022-11-01T07:18:58.508Z,9.00
2022-11-01T07:21:27.443Z,9.00
2022-11-01T07:23:56.304Z,8.90
2022-11-01T07:26:26.381Z,9.00
2022-11-01T07:28:55.082Z,9.10
2022-11-01T07:31:24.460Z,9.20
2022-11-01T07:33:53.029Z,9.20
2022-11-01T07:36:21.758Z,9.30
2022-11-01T07:38:50.368Z,9.30
2022-11-01T07:41:18.962Z,9.30
2022-11-01T07:43:49.075Z,9.40
2022-11-01T07:46:17.715Z,9.40
2022-11-01T07:48:46.387Z,9.40
2022-11-01T07:51:15.827Z,9.50
2022-11-01T07:53:45.446Z,9.50
2022-11-01T07:56:14.032Z,9.60
2022-11-01T07:58:43.731Z,9.60
2022-11-01T08:01:13.914Z,9.70
2022-11-01T08:03:42.774Z,9.80
2022-11-01T08:06:11.440Z,9.80
2022-11-01T08:08:40.142Z,9.90
2022-11-01T08:11:08.929Z,9.90
2022-11-01T08:13:37.524Z,10.00
2022-11-01T08:16:07.296Z,10.10
2022-11-01T08:18:37.286Z,10.10
2022-11-01T08:21:06.523Z,10.10
2022-11-01T08:23:35.132Z,10.20
2022-11-01T08:26:05.022Z,10.20
2022-11-01T08:28:33.687Z,10.20
2022-11-01T08:31:08.175Z,10.30
2022-11-01T08:33:38.360Z,10.30
2022-11-01T08:36:07.607Z,10.40
2022-11-01T08:38:36.268Z,10.40
2022-11-01T08:41:05.037Z,10.50
2022-11-01T08:43:39.544Z,10.50
2022-11-01T08:46:10.776Z,10.60
2022-11-01T08:48:40.834Z,10.60
2022-11-01T08:51:09.653Z,10.60
2022-11-01T08:53:38.262Z,10.70
2022-11-01T08:56:07.929Z,10.70
2022-11-01T08:58:36.576Z,10.80
2022-11-01T09:01:05.409Z,10.90
2022-11-01T09:03:34.122Z,10.90
2022-11-01T09:06:04.161Z,11.00
2022-11-01T09:08:32.835Z,11.00
2022-11-01T09:11:01.726Z,11.00
2022-11-01T09:13:30.331Z,11.10
2022-11-01T09:16:01.458Z,11.20
2022-11-01T09:18:31.095Z,11.30
2022-11-01T09:21:00.165Z,11.30
2022-11-01T09:23:30.445Z,11.40
2022-11-01T09:26:04.016Z,11.50
2022-11-01T09:28:34.125Z,11.70
2022-11-01T09:31:19.508Z,11.70
2022-11-01T09:33:49.435Z,11.80
2022-11-01T09:36:18.157Z,11.90
2022-11-01T09:38:48.210Z,11.90
2022-11-01T09:41:32.047Z,11.90
2022-11-01T09:44:06.137Z,11.90
2022-11-01T09:46:46.776Z,12.00
2022-11-01T09:49:24.331Z,12.00
2022-11-01T09:51:53.386Z,12.30
2022-11-01T09:54:26.174Z,12.30
2022-11-01T09:57:10.374Z,12.30
2022-11-01T09:59:50.107Z,12.30
2022-11-01T10:03:06.850Z,12.40
2022-11-01T10:05:48.752Z,12.40
2022-11-01T10:08:43.191Z,12.50
2022-11-01T10:11:38.812Z,12.60
2022-11-01T10:14:26.842Z,12.90
2022-11-01T10:17:13.055Z,12.80
2022-11-01T10:19:46.456Z,12.80
2022-11-01T10:22:19.704Z,13.00
2022-11-01T10:24:56.938Z,13.00
2022-11-01T10:27:47.115Z,13.10
2022-11-01T10:30:18.867Z,13.20
2022-11-01T10:32:54.519Z,13.20
2022-11-01T10:35:30.526Z,13.50
2022-11-01T10:38:24.824Z,13.40
2022-11-01T10:41:03.952Z,13.50
2022-11-01T10:43:39.926Z,13.50
2022-11-01T10:46:13.449Z,13.60
2022-11-01T10:48:49.892Z,13.70
2022-11-01T10:51:27.668Z,13.70
2022-11-01T10:54:02.055Z,13.60
2022-11-01T10:56:41.869Z,13.60
2022-11-01T10:59:20.509Z,13.60
2022-11-01T11:01:51.571Z,13.60
2022-11-01T11:04:25.077Z,13.60
2022-11-01T11:06:54.296Z,13.70
2022-11-01T11:09:30.910Z,13.70
2022-11-01T11:18:06.512Z,14.10
2022-11-01T11:20:37.539Z,14.10
2022-11-01T11:23:13.429Z,14.20
2022-11-01T11:25:45.039Z,14.40
2022-11-01T11:28:27.034Z,14.40
2022-11-01T11:30:59.595Z,14.50
2022-11-01T11:33:29.816Z,14.60
2022-11-01T11:36:01.116Z,15.00
2022-11-01T11:38:44.583Z,14.90
2022-11-01T11:41:27.792Z,14.90
2022-11-01T11:43:56.813Z,14.80
2022-11-01T11:46:25.639Z,15.00
2022-11-01T11:48:59.279Z,14.80
2022-11-01T11:51:30.991Z,15.00
2022-11-01T11:54:24.988Z,15.20
2022-11-01T11:57:10.925Z,15.20
2022-11-01T11:59:40.868Z,15.10
2022-11-01T12:02:22.272Z,14.90
2022-11-01T12:04:59.208Z,15.00
2022-11-01T12:07:31.801Z,14.90
2022-11-01T12:10:04.404Z,15.00
2022-11-01T12:12:36.041Z,15.00
2022-11-01T12:15:26.637Z,15.00
2022-11-01T12:17:56.104Z,15.00
2022-11-01T12:20:36.426Z,14.90
2022-11-01T12:23:12.405Z,14.80
2022-11-01T12:25:46.094Z,14.80
2022-11-01T12:28:27.977Z,14.80
2022-11-01T12:31:06.088Z,14.90
2022-11-01T12:33:41.052Z,15.10
2022-11-01T12:36:15.344Z,15.00
2022-11-01T12:38:48.761Z,15.10
2022-11-01T12:41:30.952Z,15.00
2022-11-01T12:44:32.890Z,15.00
2022-11-01T12:47:11.888Z,15.00
2022-11-01T12:49:49.347Z,15.00
2022-11-01T12:52:31.395Z,15.00
2022-11-01T12:57:42.094Z,14.90
2022-11-01T13:00:17.496Z,15.00
2022-11-01T13:03:13.405Z,14.90
2022-11-01T13:05:56.678Z,14.90
2022-11-01T13:08:37.528Z,15.00
2022-11-01T13:11:20.067Z,15.00
2022-11-01T13:13:59.996Z,14.90
2022-11-01T13:16:36.632Z,15.00
2022-11-01T13:19:19.492Z,15.00
2022-11-01T13:21:55.619Z,15.00
2022-11-01T13:24:37.705Z,15.00
2022-11-01T13:27:15.642Z,15.00
2022-11-01T13:29:52.796Z,14.90
2022-11-01T13:32:35.646Z,15.00
2022-11-01T13:35:44.074Z,15.00
2022-11-01T13:38:25.920Z,15.00
2022-11-01T13:41:09.258Z,15.00
2022-11-01T13:43:43.075Z,15.00
2022-11-01T13:46:52.651Z,15.00
2022-11-01T13:50:20.833Z,15.00
2022-11-01T13:52:58.803Z,15.00
2022-11-01T13:55:36.689Z,15.10
2022-11-01T13:58:09.621Z,15.10
2022-11-01T14:00:45.178Z,15.10
2022-11-01T14:03:27.858Z,15.00
2022-11-01T14:09:32.746Z,15.00
2022-11-01T14:12:28.985Z,15.00
2022-11-01T14:15:22.777Z,15.00
2022-11-01T14:18:09.545Z,15.00
2022-11-01T14:20:48.158Z,15.00
2022-11-01T14:24:00.334Z,15.00
2022-11-01T14:27:02.156Z,15.00
2022-11-01T14:29:37.127Z,15.00
2022-11-01T14:32:11.845Z,15.00
2022-11-01T14:35:17.782Z,15.00
2022-11-01T14:37:52.548Z,15.00
2022-11-01T14:40:34.396Z,14.90
2022-11-01T14:43:16.034Z,14.90
2022-11-01T14:45:49.732Z,14.90
2022-11-01T14:48:29.985Z,14.90
2022-11-01T14:51:07.851Z,14.90
2022-11-01T14:53:40.108Z,14.90
2022-11-01T14:56:19.068Z,14.90
2022-11-01T14:58:47.969Z,14.90
2022-11-01T15:01:20.806Z,14.90
2022-11-01T15:04:06.036Z,14.90
2022-11-01T15:06:34.650Z,14.90
2022-11-01T15:09:04.296Z,14.80
2022-11-01T15:11:36.621Z,14.80
2022-11-01T15:14:09.420Z,14.80
2022-11-01T15:16:43.782Z,14.80
2022-11-01T15:19:20.090Z,14.80
2022-11-01T15:21:50.235Z,14.70
2022-11-01T15:24:29.971Z,14.70
2022-11-01T15:27:06.124Z,14.60
2022-11-01T15:29:39.077Z,14.70
2022-11-01T15:32:08.099Z,14.60
2022-11-01T15:34:39.812Z,14.60
2022-11-01T15:37:24.711Z,14.60
2022-11-01T15:39:54.057Z,14.50
2022-11-01T15:42:27.598Z,14.50
2022-11-01T15:44:59.997Z,14.40
2022-11-01T15:47:30.873Z,14.50
2022-11-01T15:50:07.634Z,14.40
2022-11-01T15:52:37.248Z,14.40
2022-11-01T15:55:19.138Z,14.30
2022-11-01T15:57:57.594Z,14.30
2022-11-01T16:09:04.367Z,14.20
2022-11-01T16:11:37.060Z,14.20
2022-11-01T16:14:19.974Z,14.10
2022-11-01T16:17:01.309Z,14.00
2022-11-01T16:19:38.085Z,13.90
2022-11-01T16:22:28.351Z,13.90
2022-11-01T16:25:16.422Z,13.90
2022-11-01T16:28:07.415Z,13.80
2022-11-01T16:30:40.842Z,13.70
2022-11-01T16:33:28.925Z,13.70
2022-11-01T16:36:00.188Z,13.80
2022-11-01T16:38:45.667Z,13.70
2022-11-01T16:41:21.561Z,13.60
2022-11-01T16:43:54.891Z,13.50
2022-11-01T16:46:30.339Z,13.50
2022-11-01T16:49:03.823Z,13.40
2022-11-01T16:51:33.745Z,13.30
2022-11-01T16:54:05.140Z,13.30
2022-11-01T16:56:42.292Z,13.30
2022-11-01T16:59:24.796Z,13.40
2022-11-01T17:01:57.856Z,13.40
2022-11-01T17:04:30.116Z,13.30
2022-11-01T17:06:59.635Z,13.20
2022-11-01T17:09:34.095Z,13.20
2022-11-01T17:12:04.450Z,13.10
2022-11-01T17:14:35.521Z,13.10
2022-11-01T17:17:08.899Z,13.00
2022-11-01T17:19:42.432Z,13.00
2022-11-01T17:22:19.232Z,13.00
2022-11-01T17:24:48.481Z,13.10
2022-11-01T17:27:19.141Z,13.00
2022-11-01T17:29:47.764Z,13.00
2022-11-01T17:32:16.920Z,13.00
2022-11-01T17:34:49.220Z,13.00
2022-11-01T17:37:18.879Z,12.80
2022-11-01T17:39:52.256Z,12.80
2022-11-01T17:42:22.611Z,12.70
2022-11-01T17:44:51.758Z,12.70
2022-11-01T17:47:20.488Z,12.70
2022-11-01T17:49:49.286Z,12.80
2022-11-01T17:52:18.239Z,12.80
2022-11-01T17:54:47.103Z,12.70
2022-11-01T17:57:15.866Z,12.70
2022-11-01T17:59:45.846Z,12.70
2022-11-01T18:02:14.841Z,12.60
2022-11-01T18:04:43.673Z,12.60
2022-11-01T18:07:13.954Z,12.60
2022-11-01T18:09:42.802Z,12.60
2022-11-01T18:12:20.199Z,12.50
2022-11-01T18:15:04.083Z,12.60
2022-11-01T18:17:50.223Z,12.50
2022-11-01T18:20:36.437Z,12.40
2022-11-01T18:23:11.970Z,12.40
2022-11-01T18:25:46.033Z,12.40
2022-11-01T18:28:18.417Z,12.30
2022-11-01T18:30:56.130Z,12.30
2022-11-01T18:33:38.220Z,12.30
2022-11-01T18:36:17.136Z,12.30
2022-11-01T18:38:58.652Z,12.30
2022-11-01T18:41:27.833Z,12.30
2022-11-01T18:43:56.519Z,12.20
2022-11-01T18:46:38.620Z,12.20
2022-11-01T18:49:13.974Z,12.10
2022-11-01T18:51:44.674Z,12.10
2022-11-01T18:54:26.066Z,12.10
2022-11-01T18:56:58.360Z,12.00
2022-11-01T18:59:31.164Z,12.00
2022-11-01T19:02:14.019Z,11.90
2022-11-01T19:04:44.262Z,11.90
2022-11-01T19:07:15.846Z,11.90
2022-11-01T19:09:56.067Z,12.00
2022-11-01T19:12:32.750Z,12.00
2022-11-01T19:15:08.510Z,12.00
2022-11-01T19:17:43.498Z,12.00
2022-11-01T19:20:27.884Z,11.90
2022-11-01T19:23:00.573Z,11.90
2022-11-01T19:25:33.405Z,11.90
2022-11-01T19:28:11.509Z,11.80
2022-11-01T19:30:40.437Z,11.80
2022-11-01T19:33:27.308Z,11.80
2022-11-01T19:35:58.534Z,11.80
2022-11-01T19:38:27.560Z,11.70
2022-11-01T19:40:56.675Z,11.70
2022-11-01T19:43:29.230Z,11.60
2022-11-01T19:45:59.716Z,11.70
2022-11-01T19:48:33.343Z,11.60
2022-11-01T19:51:02.073Z,11.60
2022-11-01T19:53:35.013Z,11.70
2022-11-01T19:56:06.247Z,11.70
2022-11-01T19:58:44.119Z,11.70
2022-11-01T20:01:40.853Z,11.70
2022-11-01T20:04:27.395Z,11.60
2022-11-01T20:07:01.424Z,11.60
2022-11-01T20:09:31.974Z,11.70
2022-11-01T20:12:00.947Z,11.50
2022-11-01T20:14:29.772Z,11.60
2022-11-01T20:16:58.584Z,11.50
2022-11-01T20:22:39.486Z,11.50
2022-11-01T20:25:09.289Z,11.50
2022-11-01T20:27:37.297Z,11.50
2022-11-01T20:30:06.474Z,11.40
2022-11-01T20:32:37.520Z,11.30
2022-11-01T20:35:07.556Z,11.40
2022-11-01T20:37:38.189Z,11.40
2022-11-01T20:40:11.012Z,11.30
2022-11-01T20:42:40.198Z,11.30
2022-11-01T20:45:09.729Z,11.30
2022-11-01T20:47:41.451Z,11.40
2022-11-01T20:50:17.130Z,11.20
2022-11-01T20:52:46.126Z,11.20
2022-11-01T20:55:16.605Z,11.10
2022-11-01T20:57:45.443Z,11.10
2022-11-01T21:00:18.337Z,11.10
2022-11-01T21:02:48.088Z,11.10
2022-11-01T21:05:26.174Z,11.30
2022-11-01T21:07:59.839Z,11.20
2022-11-01T21:10:35.638Z,11.20
2022-11-01T21:13:21.343Z,11.20
2022-11-01T21:15:51.199Z,11.10
2022-11-01T21:18:39.175Z,11.10
2022-11-01T21:21:33.603Z,11.20
2022-11-01T21:24:27.415Z,11.10
2022-11-01T21:27:24.145Z,11.10
2022-11-01T21:29:55.807Z,11.10
2022-11-01T21:32:29.873Z,11.20
2022-11-01T21:34:59.321Z,11.10
2022-11-01T21:37:31.050Z,11.00
2022-11-01T21:45:39.622Z,11.00
2022-11-01T21:48:27.913Z,10.90
2022-11-01T21:50:56.683Z,10.90
2022-11-01T21:53:25.361Z,10.90
2022-11-01T21:55:53.994Z,10.90
2022-11-01T21:58:22.964Z,10.90
2022-11-01T22:00:52.977Z,10.80
2022-11-01T22:03:21.645Z,10.70
2022-11-01T22:05:50.273Z,10.80
2022-11-01T22:08:18.907Z,10.80
2022-11-01T22:10:47.536Z,10.80
2022-11-01T22:13:16.331Z,10.70
2022-11-01T22:15:45.043Z,10.70
2022-11-01T22:18:14.962Z,10.60
2022-11-01T22:20:43.549Z,10.60
2022-11-01T22:23:12.176Z,10.60
2022-11-01T22:25:40.767Z,10.60
2022-11-01T22:28:09.312Z,10.60
2022-11-01T22:30:38.001Z,10.40
2022-11-01T22:33:09.109Z,10.40
2022-11-01T22:35:39.068Z,10.50
2022-11-01T22:38:18.536Z,10.50
2022-11-01T22:43:24.460Z,10.30
2022-11-01T22:45:54.191Z,10.20
2022-11-01T22:48:25.217Z,10.10
2022-11-01T22:50:55.231Z,10.10
2022-11-01T22:53:26.917Z,10.10
2022-11-01T22:55:56.762Z,10.00
2022-11-01T22:58:35.798Z,10.10
2022-11-01T23:01:23.571Z,10.20
2022-11-01T23:03:59.158Z,10.20
2022-11-01T23:06:35.562Z,10.20
2022-11-01T23:09:16.150Z,10.00
2022-11-01T23:12:06.782Z,10.10
2022-11-01T23:14:39.285Z,10.00
2022-11-01T23:17:22.724Z,10.00
2022-11-01T23:19:58.919Z,10.00
2022-11-01T23:22:36.705Z,10.00
2022-11-01T23:25:07.262Z,10.00
2022-11-01T23:27:36.202Z,9.90
2022-11-01T23:30:05.213Z,9.90
2022-11-01T23:32:33.901Z,9.90
2022-11-01T23:35:13.861Z,9.80
2022-11-01T23:37:45.078Z,9.80
2022-11-01T23:40:18.160Z,9.70
2022-11-01T23:42:48.417Z,9.70
2022-11-01T23:45:29.019Z,9.60
2022-11-01T23:47:57.896Z,9.70
2022-11-01T23:50:32.115Z,9.70
2022-11-01T23:53:07.652Z,9.60
2022-11-01T23:55:41.056Z,9.60
2022-11-01T23:58:14.778Z,9.60
